Time;durP1;ratioP1;P1;durP2;ratioP2;P2;SDS_P1;SDS_P2;PMS_P1;PMS_P2;Temp;Humidity;BMP_temperature;BMP_pressure;BME280_temperature;BME280_humidity;BME280_pressure;Samples;Min_cycle;Max_cycle;Signal;HPM_P1;HPM_P2
2023/04/05 00:00:08;;;;;;;7.32;3.65;;;6.60;56.30;;;;;;4989590;28;20047;-73
2023/04/05 00:02:39;;;;;;;8.55;3.25;;;6.50;56.40;;;;;;4973368;28;20047;-73
2023/04/05 00:05:07;;;;;;;7.90;3.38;;;6.50;56.50;;;;;;4990345;28;20158;-73
2023/04/05 00:07:34;;;;;;;9.10;3.80;;;6.50;56.40;;;;;;4989707;28;20886;-73
2023/04/05 00:10:01;;;;;;;8.73;3.53;;;6.50;56.50;;;;;;4989684;28;20063;-73
2023/04/05 00:12:29;;;;;;;10.07;3.42;;;6.40;56.60;;;;;;5006958;28;20078;-73
2023/04/05 00:14:55;;;;;;;8.05;3.20;;;6.40;56.60;;;;;;5009370;28;20132;-73
2023/04/05 00:17:24;;;;;;;9.77;3.30;;;6.40;56.60;;;;;;5010876;28;20129;-73
2023/04/05 00:19:55;;;;;;;9.63;3.10;;;6.30;56.60;;;;;;5010632;28;20061;-73
2023/04/05 00:22:24;;;;;;;9.05;3.50;;;6.30;56.70;;;;;;5005403;28;20050;-73
2023/04/05 00:24:51;;;;;;;8.30;3.38;;;6.30;56.60;;;;;;4991396;28;20055;-73
2023/04/05 00:27:19;;;;;;;9.48;3.58;;;6.30;56.70;;;;;;4989586;28;21023;-73
2023/04/05 00:29:46;;;;;;;9.15;3.22;;;6.20;56.80;;;;;;5032140;28;20061;-73
2023/04/05 00:32:13;;;;;;;8.10;3.57;;;6.20;57.00;;;;;;4965871;28;20051;-73
2023/04/05 00:34:42;;;;;;;7.55;3.05;;;6.20;57.00;;;;;;4994386;28;20065;-73
2023/04/05 00:37:09;;;;;;;8.02;3.35;;;6.10;57.10;;;;;;5006573;28;20055;-73
2023/04/05 00:39:36;;;;;;;9.15;3.38;;;6.10;57.10;;;;;;4990830;28;20050;-73
2023/04/05 00:42:03;;;;;;;9.32;3.40;;;6.10;57.20;;;;;;4988512;28;20049;-72
2023/04/05 00:44:33;;;;;;;8.00;3.00;;;6.00;57.20;;;;;;4971614;28;20134;-73
2023/04/05 00:47:00;;;;;;;7.57;3.08;;;6.00;57.30;;;;;;4966240;28;20055;-73
2023/04/05 00:49:28;;;;;;;8.88;3.35;;;5.90;57.40;;;;;;4980845;28;20047;-74
2023/04/05 00:51:58;;;;;;;7.30;2.95;;;5.90;57.50;;;;;;4980990;28;20130;-73
2023/04/05 00:54:27;;;;;;;8.05;3.40;;;5.90;57.50;;;;;;4989009;28;20137;-73
2023/04/05 00:56:56;;;;;;;8.23;3.20;;;5.80;57.50;;;;;;5005862;28;20043;-73
2023/04/05 00:59:23;;;;;;;7.70;3.10;;;5.80;57.60;;;;;;4988736;28;20054;-72
2023/04/05 01:02:06;;;;;;;8.18;3.28;;;5.80;57.80;;;;;;5004258;28;20146;-73
2023/04/05 01:04:35;;;;;;;9.40;3.30;;;5.80;57.90;;;;;;4988001;28;20736;-73
2023/04/05 01:07:12;;;;;;;7.60;3.15;;;5.70;57.90;;;;;;4986015;28;20402;-73
2023/04/05 01:09:45;;;;;;;8.63;2.87;;;5.70;58.00;;;;;;4988296;28;20087;-73
2023/04/05 01:12:17;;;;;;;7.78;2.88;;;5.60;57.70;;;;;;4988917;28;20046;-73
2023/04/05 01:14:46;;;;;;;7.43;2.60;;;5.50;57.60;;;;;;5004954;28;20125;-73
2023/04/05 01:17:15;;;;;;;5.78;2.67;;;5.30;57.70;;;;;;5005019;28;20627;-72
2023/04/05 01:19:46;;;;;;;7.10;3.03;;;5.30;58.00;;;;;;4988603;28;20500;-73
2023/04/05 01:22:55;;;;;;;6.70;3.07;;;5.20;58.40;;;;;;5005265;28;20050;-73
2023/04/05 01:25:37;;;;;;;7.00;2.42;;;5.10;58.70;;;;;;5004649;28;20075;-73
2023/04/05 01:28:34;;;;;;;7.93;2.97;;;5.10;58.80;;;;;;4988593;28;20153;-72
2023/04/05 01:31:08;;;;;;;7.20;2.40;;;5.10;59.00;;;;;;4995908;28;20051;-73
2023/04/05 01:33:41;;;;;;;7.75;2.70;;;5.00;59.10;;;;;;4990787;28;20137;-73
2023/04/05 01:36:15;;;;;;;8.87;2.70;;;5.00;59.10;;;;;;4996331;28;20161;-73
2023/04/05 01:38:46;;;;;;;8.35;3.15;;;5.00;59.00;;;;;;4986558;28;20134;-73
2023/04/05 01:41:13;;;;;;;8.77;3.20;;;5.00;58.90;;;;;;4987958;28;20051;-72
2023/04/05 01:43:40;;;;;;;8.10;3.17;;;5.00;58.70;;;;;;4988133;28;20153;-72
2023/04/05 01:46:08;;;;;;;7.65;3.10;;;5.00;58.60;;;;;;5004723;28;20242;-72
2023/04/05 01:48:35;;;;;;;8.50;3.73;;;4.90;58.90;;;;;;5004192;28;20513;-72
2023/04/05 01:51:02;;;;;;;9.25;3.40;;;4.90;59.00;;;;;;4988126;28;20619;-72
2023/04/05 01:53:31;;;;;;;8.48;3.28;;;4.90;59.10;;;;;;5022432;28;20082;-72
2023/04/05 01:56:01;;;;;;;7.82;3.13;;;4.80;59.30;;;;;;4991204;28;20050;-72
2023/04/05 01:58:29;;;;;;;10.00;3.28;;;4.80;59.30;;;;;;5007262;28;20622;-72
2023/04/05 02:00:57;;;;;;;9.00;3.10;;;4.70;59.40;;;;;;4995682;28;20463;-72
2023/04/05 02:03:25;;;;;;;7.65;3.20;;;4.70;59.50;;;;;;4987442;28;20051;-72
2023/04/05 02:05:53;;;;;;;9.50;3.60;;;4.70;59.50;;;;;;5020421;28;20114;-72
2023/04/05 02:08:20;;;;;;;6.97;3.17;;;4.70;59.50;;;;;;4981266;28;20401;-72
2023/04/05 02:10:48;;;;;;;10.38;4.18;;;4.70;59.60;;;;;;4987780;28;20098;-72
2023/04/05 02:13:15;;;;;;;8.37;3.33;;;4.70;59.70;;;;;;4986366;28;20043;-73
2023/04/05 02:15:48;;;;;;;6.72;3.10;;;4.70;59.60;;;;;;4985705;28;20051;-73
2023/04/05 02:18:15;;;;;;;11.05;3.45;;;4.70;59.70;;;;;;4971176;28;20078;-73
2023/04/05 02:20:43;;;;;;;9.30;3.72;;;4.60;59.90;;;;;;4985512;28;20510;-73
2023/04/05 02:23:10;;;;;;;8.43;3.55;;;4.60;60.00;;;;;;4981986;28;20046;-72
2023/04/05 02:25:37;;;;;;;8.87;3.70;;;4.60;60.10;;;;;;4971317;28;20052;-72
2023/04/05 02:28:05;;;;;;;8.75;3.40;;;4.50;60.20;;;;;;4994186;28;20078;-73
2023/04/05 02:30:32;;;;;;;9.68;3.70;;;4.50;60.20;;;;;;4986494;28;20039;-73
2023/04/05 02:33:00;;;;;;;8.88;3.50;;;4.50;60.10;;;;;;4996039;28;20046;-73
2023/04/05 02:35:27;;;;;;;7.97;3.50;;;4.50;60.20;;;;;;5003854;28;20546;-72
2023/04/05 02:37:56;;;;;;;8.47;3.30;;;4.50;60.20;;;;;;4995346;28;20054;-72
2023/04/05 02:40:23;;;;;;;10.70;4.30;;;4.50;60.30;;;;;;4986771;28;20583;-73
2023/04/05 02:42:50;;;;;;;9.05;3.70;;;4.50;60.20;;;;;;4995086;28;20086;-73
2023/04/05 02:45:18;;;;;;;7.72;3.47;;;4.50;60.30;;;;;;4987382;28;20051;-72
2023/04/05 02:47:46;;;;;;;7.22;3.30;;;4.50;60.30;;;;;;4992307;28;20138;-73
2023/04/05 02:50:19;;;;;;;9.33;3.50;;;4.40;60.40;;;;;;5003953;28;20110;-72
2023/04/05 02:52:50;;;;;;;7.05;3.50;;;4.40;60.40;;;;;;4987489;28;20059;-72
2023/04/05 02:55:21;;;;;;;8.10;3.45;;;4.40;60.40;;;;;;4988648;28;20544;-73
2023/04/05 02:57:48;;;;;;;7.15;3.20;;;4.40;60.40;;;;;;4985131;28;20043;-73
2023/04/05 03:00:26;;;;;;;7.05;3.03;;;4.30;60.40;;;;;;5003370;28;20134;-73
2023/04/05 03:02:55;;;;;;;8.93;2.90;;;4.20;60.50;;;;;;4968374;28;20054;-73
2023/04/05 03:05:23;;;;;;;11.00;2.92;;;4.10;60.40;;;;;;4979897;28;20510;-73
2023/04/05 03:07:53;;;;;;;13.85;3.20;;;4.00;60.40;;;;;;4965688;28;20051;-72
2023/04/05 03:10:28;;;;;;;7.95;2.53;;;3.90;60.40;;;;;;4982826;28;20043;-73
2023/04/05 03:13:01;;;;;;;8.13;2.85;;;3.80;60.60;;;;;;5003463;28;20046;-72
2023/04/05 03:15:28;;;;;;;7.77;2.73;;;3.70;60.70;;;;;;4987052;28;20059;-72
2023/04/05 03:17:57;;;;;;;8.88;2.78;;;3.60;60.80;;;;;;4986571;28;20054;-73
2023/04/05 03:20:25;;;;;;;8.13;3.15;;;3.50;60.90;;;;;;4982721;28;20059;-72
2023/04/05 03:22:55;;;;;;;6.90;2.75;;;3.50;61.10;;;;;;4983803;28;20043;-72
2023/04/05 03:25:29;;;;;;;7.95;2.65;;;3.50;61.30;;;;;;4966671;28;20449;-72
2023/04/05 03:27:57;;;;;;;7.63;2.80;;;3.50;61.30;;;;;;4984631;28;20050;-72
2023/04/05 03:30:29;;;;;;;8.20;2.92;;;3.50;61.10;;;;;;4986432;28;20053;-73
2023/04/05 03:33:03;;;;;;;7.65;3.15;;;3.40;61.20;;;;;;5019524;28;20081;-73
2023/04/05 03:35:37;;;;;;;6.82;3.00;;;3.40;61.30;;;;;;4989618;28;20066;-72
2023/04/05 03:38:07;;;;;;;8.02;2.70;;;3.30;61.40;;;;;;4983007;28;20137;-73
2023/04/05 03:40:38;;;;;;;7.77;2.87;;;3.30;61.40;;;;;;4989546;28;20049;-72
2023/04/05 03:43:09;;;;;;;8.27;2.70;;;3.20;61.30;;;;;;4992119;28;20055;-73
2023/04/05 03:45:37;;;;;;;8.10;3.00;;;3.10;61.60;;;;;;4972148;28;20051;-72
2023/04/05 03:48:04;;;;;;;7.55;2.80;;;3.10;61.70;;;;;;4989669;28;20622;-72
2023/04/05 03:50:31;;;;;;;7.85;2.70;;;3.10;61.40;;;;;;4992705;28;20058;-72
2023/04/05 03:52:58;;;;;;;7.53;3.43;;;3.10;61.60;;;;;;4969908;28;20125;-72
2023/04/05 03:55:25;;;;;;;7.88;3.10;;;3.00;61.60;;;;;;5003977;28;20512;-72
2023/04/05 03:57:54;;;;;;;8.15;2.75;;;2.90;61.90;;;;;;4973209;28;20759;-72
2023/04/05 04:00:29;;;;;;;8.00;3.00;;;2.90;62.00;;;;;;4994124;28;20062;-72
2023/04/05 04:03:17;;;;;;;8.05;3.00;;;2.90;62.10;;;;;;4994258;28;20136;-72
2023/04/05 04:05:47;;;;;;;6.57;2.80;;;2.80;62.50;;;;;;4975435;28;20055;-72
2023/04/05 04:08:14;;;;;;;8.85;3.28;;;2.80;62.60;;;;;;4984036;28;20050;-72
2023/04/05 04:10:41;;;;;;;8.95;3.45;;;2.80;62.60;;;;;;4968021;28;20545;-72
2023/04/05 04:13:27;;;;;;;10.02;3.55;;;2.70;62.70;;;;;;5001464;28;20496;-72
2023/04/05 04:16:10;;;;;;;9.38;3.53;;;2.70;62.90;;;;;;4985661;28;20437;-72
2023/04/05 04:19:17;;;;;;;9.37;3.10;;;2.70;62.90;;;;;;5012780;28;20053;-72
2023/04/05 04:22:03;;;;;;;9.30;3.17;;;2.70;63.00;;;;;;5023014;28;20098;-72
2023/04/05 04:25:09;;;;;;;8.18;3.08;;;2.80;63.00;;;;;;4971696;28;20517;-72
2023/04/05 04:28:05;;;;;;;9.25;3.20;;;2.80;63.00;;;;;;4992586;28;20054;-72
2023/04/05 04:31:03;;;;;;;8.02;3.13;;;2.80;63.00;;;;;;4999445;28;20604;-72
2023/04/05 04:34:09;;;;;;;7.27;3.27;;;2.70;63.00;;;;;;4978845;28;20121;-72
2023/04/05 04:37:00;;;;;;;9.23;3.17;;;2.70;63.20;;;;;;5015282;28;20159;-72
2023/04/05 04:39:47;;;;;;;8.65;3.58;;;2.70;63.30;;;;;;4964673;28;20062;-72
2023/04/05 04:42:21;;;;;;;10.35;3.33;;;2.60;63.30;;;;;;4990557;28;20061;-72
2023/04/05 04:45:09;;;;;;;6.88;2.80;;;2.60;63.40;;;;;;4966636;28;20252;-73
2023/04/05 04:47:59;;;;;;;7.77;3.20;;;2.60;63.40;;;;;;4997630;28;20055;-72
2023/04/05 04:50:38;;;;;;;6.97;2.90;;;2.60;63.40;;;;;;4988637;28;20674;-72
2023/04/05 04:53:06;;;;;;;9.13;3.05;;;2.60;63.50;;;;;;4990511;28;20785;-72
2023/04/05 04:55:35;;;;;;;7.00;2.80;;;2.60;63.50;;;;;;4988135;28;20051;-72
2023/04/05 04:58:08;;;;;;;8.27;3.33;;;2.70;63.70;;;;;;4988662;28;20047;-73
2023/04/05 05:00:35;;;;;;;8.70;3.20;;;2.70;63.70;;;;;;4988560;28;20053;-72
2023/04/05 05:03:05;;;;;;;7.47;2.97;;;2.70;63.80;;;;;;4990229;28;20050;-72
2023/04/05 05:05:32;;;;;;;8.85;3.20;;;2.60;64.00;;;;;;4989320;28;20051;-72
2023/04/05 05:07:59;;;;;;;9.07;2.95;;;2.50;64.10;;;;;;4990640;28;20129;-72
2023/04/05 05:10:26;;;;;;;6.18;2.90;;;2.50;64.00;;;;;;4993970;28;20076;-72
2023/04/05 05:13:00;;;;;;;8.70;3.40;;;2.50;64.20;;;;;;4972552;28;20492;-72
2023/04/05 05:15:27;;;;;;;12.68;3.95;;;2.50;64.20;;;;;;4988648;28;20515;-72
2023/04/05 05:17:54;;;;;;;11.18;3.50;;;2.50;64.30;;;;;;4988849;28;20050;-72
2023/04/05 05:20:23;;;;;;;8.43;3.35;;;2.50;64.20;;;;;;4988305;28;20066;-72
2023/04/05 05:22:51;;;;;;;10.57;3.45;;;2.50;64.20;;;;;;4988615;28;20142;-72
2023/04/05 05:25:19;;;;;;;8.57;2.73;;;2.50;64.20;;;;;;4990403;28;20944;-72
2023/04/05 05:27:49;;;;;;;7.90;3.17;;;2.50;64.30;;;;;;4989142;28;20074;-72
2023/04/05 05:30:16;;;;;;;8.05;3.38;;;2.50;64.20;;;;;;4990214;28;20141;-72
2023/04/05 05:32:43;;;;;;;9.82;3.60;;;2.50;64.30;;;;;;5005474;28;20073;-72
2023/04/05 05:35:10;;;;;;;8.13;3.30;;;2.50;64.40;;;;;;4990260;28;20126;-72
2023/04/05 05:37:39;;;;;;;9.30;3.40;;;2.50;64.40;;;;;;4990001;28;20051;-72
2023/04/05 05:40:08;;;;;;;9.50;3.75;;;2.50;64.40;;;;;;4988477;28;20046;-72
2023/04/05 05:42:36;;;;;;;10.18;3.90;;;2.50;64.40;;;;;;5011607;28;20058;-72
2023/04/05 05:45:05;;;;;;;8.82;4.00;;;2.50;64.60;;;;;;5008392;28;20156;-72
2023/04/05 05:47:33;;;;;;;9.40;4.30;;;2.50;64.70;;;;;;5008408;28;20054;-72
2023/04/05 05:50:00;;;;;;;11.20;4.03;;;2.50;64.80;;;;;;5009373;28;20106;-72
2023/04/05 05:52:27;;;;;;;10.70;3.83;;;2.50;64.90;;;;;;5007935;28;20580;-72
2023/04/05 05:54:56;;;;;;;10.27;4.40;;;2.50;65.00;;;;;;5008112;28;20117;-72
2023/04/05 05:57:23;;;;;;;10.95;4.78;;;2.50;65.20;;;;;;5007764;28;20130;-72
2023/04/05 05:59:50;;;;;;;11.82;5.45;;;2.50;65.10;;;;;;5009383;28;20125;-72
2023/04/05 06:02:17;;;;;;;11.63;5.27;;;2.50;65.30;;;;;;4990666;28;20046;-72
2023/04/05 06:04:44;;;;;;;12.27;5.15;;;2.40;65.40;;;;;;4988542;28;20055;-72
2023/04/05 06:07:12;;;;;;;11.95;5.00;;;2.40;65.60;;;;;;4989425;28;20137;-72
2023/04/05 06:09:39;;;;;;;12.80;5.53;;;2.40;65.80;;;;;;4989525;28;20165;-72
2023/04/05 06:12:08;;;;;;;11.02;5.05;;;2.40;65.80;;;;;;4988225;28;20042;-72
2023/04/05 06:14:35;;;;;;;11.63;4.83;;;2.40;66.00;;;;;;4987951;28;20141;-71
2023/04/05 06:17:02;;;;;;;15.68;5.68;;;2.40;66.10;;;;;;4994931;28;20141;-72
2023/04/05 06:19:29;;;;;;;13.35;5.82;;;2.50;66.20;;;;;;5000603;28;20042;-73
2023/04/05 06:21:59;;;;;;;9.85;5.00;;;2.50;66.10;;;;;;5001459;28;20057;-72
2023/04/05 06:24:30;;;;;;;13.73;5.20;;;2.50;66.20;;;;;;4997073;28;20047;-73
2023/04/05 06:26:58;;;;;;;12.00;5.10;;;2.50;66.20;;;;;;4987997;28;20472;-73
2023/04/05 06:29:26;;;;;;;12.70;5.53;;;2.50;66.30;;;;;;4988877;28;20528;-73
2023/04/05 06:31:54;;;;;;;12.55;5.47;;;2.50;66.40;;;;;;4987093;28;20161;-73
2023/04/05 06:34:21;;;;;;;13.73;5.93;;;2.50;66.30;;;;;;4989941;28;20867;-73
2023/04/05 06:36:49;;;;;;;14.80;5.80;;;2.60;66.50;;;;;;4989916;28;20145;-72
2023/04/05 06:39:16;;;;;;;13.33;6.00;;;2.70;66.40;;;;;;4988215;28;20059;-73
2023/04/05 06:41:43;;;;;;;11.13;5.85;;;2.70;66.50;;;;;;5019520;28;20058;-72
2023/04/05 06:44:10;;;;;;;13.35;6.30;;;2.70;66.50;;;;;;5018812;28;20053;-73
2023/04/05 06:46:38;;;;;;;13.23;6.43;;;2.70;66.50;;;;;;4989775;28;20054;-73
2023/04/05 06:49:05;;;;;;;12.20;6.10;;;2.70;66.70;;;;;;4987658;28;20539;-72
2023/04/05 06:51:32;;;;;;;12.10;6.13;;;2.80;66.90;;;;;;4987126;28;20058;-73
2023/04/05 06:53:59;;;;;;;12.80;6.40;;;2.80;67.30;;;;;;5003879;28;20056;-72
2023/04/05 06:56:27;;;;;;;14.07;6.53;;;2.80;67.70;;;;;;4988736;28;20789;-73
2023/04/05 06:58:54;;;;;;;13.02;6.47;;;2.70;67.70;;;;;;4985549;28;20146;-73
2023/04/05 07:01:23;;;;;;;12.57;6.60;;;2.70;67.90;;;;;;4980848;28;20057;-72
2023/04/05 07:03:53;;;;;;;13.80;6.83;;;2.70;68.30;;;;;;4990866;28;20059;-73
2023/04/05 07:06:22;;;;;;;13.38;6.75;;;2.70;68.40;;;;;;4987901;28;20058;-73
2023/04/05 07:08:49;;;;;;;14.57;7.35;;;2.70;68.60;;;;;;4987347;28;20059;-73
2023/04/05 07:11:17;;;;;;;13.27;7.65;;;2.80;68.60;;;;;;4986600;28;20521;-72
2023/04/05 07:13:44;;;;;;;13.68;7.57;;;2.80;68.80;;;;;;4988872;28;20051;-72
2023/04/05 07:16:11;;;;;;;13.00;7.37;;;2.80;68.90;;;;;;4987126;28;20090;-73
2023/04/05 07:18:38;;;;;;;15.15;7.18;;;2.80;68.90;;;;;;4988037;28;20141;-74
2023/04/05 07:21:07;;;;;;;15.10;7.90;;;2.90;68.90;;;;;;4988587;28;20609;-74
2023/04/05 07:23:34;;;;;;;12.93;7.68;;;2.90;69.20;;;;;;4988612;28;20058;-75
2023/04/05 07:26:04;;;;;;;14.25;7.25;;;2.90;69.20;;;;;;5002372;28;20050;-74
2023/04/05 07:28:32;;;;;;;12.43;7.00;;;3.00;69.60;;;;;;4983851;28;20062;-75
2023/04/05 07:30:59;;;;;;;13.48;6.50;;;3.00;69.30;;;;;;4983069;28;20054;-74
2023/04/05 07:33:27;;;;;;;13.60;7.32;;;3.10;69.20;;;;;;4984810;28;20055;-74
2023/04/05 07:35:55;;;;;;;12.20;7.25;;;3.10;69.60;;;;;;4986402;28;20047;-74
2023/04/05 07:38:23;;;;;;;16.20;7.90;;;3.10;69.60;;;;;;4984511;28;20145;-73
2023/04/05 07:40:51;;;;;;;12.67;7.07;;;3.20;69.70;;;;;;5001504;28;20047;-74
2023/04/05 07:43:18;;;;;;;12.43;6.57;;;3.30;70.00;;;;;;4984146;28;20145;-74
2023/04/05 07:45:46;;;;;;;14.27;7.60;;;3.30;70.30;;;;;;4987175;28;20579;-74
2023/04/05 07:48:13;;;;;;;13.65;7.25;;;3.30;70.30;;;;;;4982744;28;20042;-74
2023/04/05 07:50:41;;;;;;;12.65;7.53;;;3.40;70.50;;;;;;4983536;28;20474;-74
2023/04/05 07:53:08;;;;;;;14.47;6.83;;;3.50;70.40;;;;;;4985381;28;20472;-74
2023/04/05 07:55:39;;;;;;;12.15;6.93;;;3.50;70.10;;;;;;4985848;28;20050;-74
2023/04/05 07:58:07;;;;;;;14.75;7.32;;;3.50;70.20;;;;;;4982430;28;20066;-74
2023/04/05 08:00:35;;;;;;;12.77;6.88;;;3.60;70.60;;;;;;4984771;28;20130;-74
2023/04/05 08:03:03;;;;;;;12.43;6.97;;;3.70;70.90;;;;;;4985369;28;20070;-74
2023/04/05 08:05:30;;;;;;;12.50;6.90;;;3.70;70.60;;;;;;4984813;28;20485;-74
2023/04/05 08:07:58;;;;;;;11.80;6.45;;;3.80;70.40;;;;;;4986730;28;20113;-74
2023/04/05 08:10:25;;;;;;;15.50;6.80;;;3.90;70.50;;;;;;4985709;28;20088;-75
2023/04/05 08:12:53;;;;;;;13.02;6.93;;;3.90;70.50;;;;;;4988553;28;20054;-73
2023/04/05 08:15:20;;;;;;;13.23;6.25;;;3.90;70.50;;;;;;4989482;28;20639;-73
2023/04/05 08:17:47;;;;;;;13.40;6.47;;;4.00;70.60;;;;;;4989461;28;20055;-73
2023/04/05 08:20:14;;;;;;;12.88;6.15;;;4.10;70.90;;;;;;4995438;28;20122;-73
2023/04/05 08:22:41;;;;;;;13.00;6.75;;;4.10;70.50;;;;;;4982559;28;20062;-73
2023/04/05 08:25:09;;;;;;;13.90;6.05;;;4.20;70.30;;;;;;4990374;28;20058;-73
2023/04/05 08:27:36;;;;;;;12.02;6.40;;;4.30;70.10;;;;;;4989906;28;20204;-72
2023/04/05 08:30:06;;;;;;;12.30;5.77;;;4.40;70.00;;;;;;4990234;28;20039;-73
2023/04/05 08:32:33;;;;;;;11.45;5.00;;;4.40;70.00;;;;;;4976346;28;20085;-73
2023/04/05 08:35:01;;;;;;;12.18;5.50;;;4.50;69.60;;;;;;5004891;28;20145;-73
2023/04/05 08:37:28;;;;;;;26.63;5.68;;;4.50;69.40;;;;;;4988877;28;20051;-73
2023/04/05 08:39:55;;;;;;;10.20;5.80;;;4.60;69.50;;;;;;5005271;28;20051;-74
2023/04/05 08:42:29;;;;;;;12.27;6.13;;;4.70;69.20;;;;;;4989106;28;20190;-73
2023/04/05 08:44:59;;;;;;;10.68;5.70;;;4.80;69.30;;;;;;4986927;28;20051;-74
2023/04/05 08:47:28;;;;;;;9.98;5.28;;;4.90;69.20;;;;;;4986749;28;20081;-74
2023/04/05 08:49:55;;;;;;;10.57;5.45;;;5.00;69.10;;;;;;4988431;28;20311;-74
2023/04/05 08:52:22;;;;;;;11.13;5.30;;;5.00;69.00;;;;;;4985984;28;20075;-74
2023/04/05 08:54:52;;;;;;;8.50;4.57;;;5.10;68.80;;;;;;4990038;28;20126;-73
2023/04/05 08:57:25;;;;;;;9.95;4.10;;;5.20;68.70;;;;;;4988831;28;20062;-73
2023/04/05 08:59:53;;;;;;;9.15;3.65;;;5.30;68.40;;;;;;4968919;28;20043;-74
2023/04/05 09:02:24;;;;;;;8.18;3.50;;;5.40;66.80;;;;;;4991693;28;20051;-74
2023/04/05 09:04:53;;;;;;;8.13;3.63;;;5.50;66.10;;;;;;4992117;28;20157;-75
2023/04/05 09:07:21;;;;;;;7.07;3.40;;;5.50;65.60;;;;;;4987680;28;20488;-75
2023/04/05 09:09:53;;;;;;;7.65;3.55;;;5.60;65.30;;;;;;4992345;28;20051;-75
2023/04/05 09:12:21;;;;;;;8.40;3.75;;;5.70;65.10;;;;;;4993415;28;20054;-75
2023/04/05 09:14:49;;;;;;;8.50;3.72;;;5.80;64.90;;;;;;4992612;28;20051;-75
2023/04/05 09:17:18;;;;;;;6.47;2.92;;;5.90;65.00;;;;;;5010113;28;20138;-75
2023/04/05 09:19:48;;;;;;;6.20;2.90;;;6.00;65.10;;;;;;4995682;28;20059;-75
2023/04/05 09:22:18;;;;;;;7.50;3.10;;;6.00;64.90;;;;;;4992895;28;20051;-75
2023/04/05 09:24:46;;;;;;;8.32;3.33;;;6.10;64.80;;;;;;4988081;28;20069;-75
2023/04/05 09:27:16;;;;;;;6.57;2.95;;;6.20;64.40;;;;;;4984580;28;20058;-75
2023/04/05 09:29:46;;;;;;;8.90;3.38;;;6.30;63.80;;;;;;4985219;28;20145;-75
2023/04/05 09:32:15;;;;;;;7.13;2.67;;;6.40;63.90;;;;;;4990607;28;20521;-75
2023/04/05 09:34:43;;;;;;;6.68;3.38;;;6.50;63.20;;;;;;4989248;28;20058;-75
2023/04/05 09:37:20;;;;;;;7.90;3.25;;;6.50;61.60;;;;;;4989819;28;20050;-75
2023/04/05 09:39:49;;;;;;;6.95;3.30;;;6.70;61.00;;;;;;4993343;28;20054;-72
2023/04/05 09:42:18;;;;;;;7.13;3.20;;;6.70;60.10;;;;;;4991933;28;20043;-72
2023/04/05 09:44:52;;;;;;;7.17;2.70;;;6.80;58.40;;;;;;4971284;28;20057;-73
2023/04/05 09:47:20;;;;;;;6.93;2.88;;;6.90;59.00;;;;;;4984438;28;20062;-71
2023/04/05 09:49:51;;;;;;;6.72;3.20;;;6.90;59.60;;;;;;4996244;28;20051;-72
2023/04/05 09:52:22;;;;;;;7.03;2.90;;;7.00;58.80;;;;;;4989835;28;20644;-71
2023/04/05 09:54:51;;;;;;;7.72;3.15;;;7.00;58.10;;;;;;4969301;28;20175;-72
2023/04/05 09:57:18;;;;;;;7.67;3.20;;;7.10;57.40;;;;;;4982823;28;20047;-72
2023/04/05 09:59:46;;;;;;;6.93;2.83;;;7.20;57.40;;;;;;4988006;28;20061;-72
2023/04/05 10:02:13;;;;;;;6.72;2.80;;;7.20;57.40;;;;;;5002530;28;20095;-72
2023/04/05 10:04:41;;;;;;;10.70;2.50;;;7.40;56.20;;;;;;4986788;28;20059;-72
2023/04/05 10:07:11;;;;;;;6.15;2.78;;;7.40;55.80;;;;;;5011651;23;20048;-72
2023/04/05 10:09:42;;;;;;;6.60;3.10;;;7.50;55.10;;;;;;4959541;28;20569;-72
2023/04/05 10:12:12;;;;;;;5.90;2.60;;;7.50;56.20;;;;;;4965780;28;20055;-72
2023/04/05 10:14:39;;;;;;;8.50;3.10;;;7.60;56.20;;;;;;4957661;28;20059;-72
2023/04/05 10:17:13;;;;;;;7.90;3.47;;;7.70;56.30;;;;;;4962749;28;20076;-72
2023/04/05 10:20:01;;;;;;;7.47;3.65;;;7.80;54.70;;;;;;4967330;28;20055;-72
2023/04/05 10:22:33;;;;;;;7.23;3.37;;;7.80;54.70;;;;;;4981342;28;20203;-72
2023/04/05 10:25:08;;;;;;;8.25;3.90;;;7.90;54.70;;;;;;4964777;28;20138;-72
2023/04/05 10:27:41;;;;;;;10.27;4.20;;;8.00;54.70;;;;;;4961764;28;20131;-72
2023/04/05 10:30:09;;;;;;;8.00;3.42;;;8.10;54.40;;;;;;4964340;28;20059;-72
2023/04/05 10:33:03;;;;;;;8.55;3.70;;;8.10;55.30;;;;;;4964977;28;20051;-72
2023/04/05 10:35:40;;;;;;;9.60;4.13;;;8.20;55.20;;;;;;4966775;28;20062;-72
2023/04/05 10:38:13;;;;;;;8.15;4.28;;;8.30;54.10;;;;;;4963069;28;20207;-75
2023/04/05 10:40:46;;;;;;;8.15;3.90;;;8.40;53.30;;;;;;4965372;28;20126;-72
2023/04/05 10:43:19;;;;;;;7.80;3.75;;;8.40;53.90;;;;;;4968140;28;20078;-72
2023/04/05 10:45:51;;;;;;;7.38;3.50;;;8.50;53.40;;;;;;4968222;28;20048;-72
2023/04/05 10:48:28;;;;;;;6.30;3.30;;;8.60;53.20;;;;;;4967880;28;20186;-72
2023/04/05 10:50:57;;;;;;;6.68;3.40;;;8.60;53.90;;;;;;4986509;28;20062;-72
2023/04/05 10:53:26;;;;;;;6.43;3.38;;;8.80;54.20;;;;;;4985520;28;20059;-73
2023/04/05 10:55:57;;;;;;;8.07;3.20;;;8.90;53.80;;;;;;4972768;28;20051;-72
2023/04/05 10:58:26;;;;;;;6.80;3.47;;;9.00;53.70;;;;;;4969622;28;20138;-73
2023/04/05 11:00:55;;;;;;;6.80;3.13;;;9.00;53.40;;;;;;4978111;28;21025;-73
2023/04/05 11:03:46;;;;;;;6.95;3.25;;;9.20;53.30;;;;;;4946556;28;20150;-72
2023/04/05 11:06:24;;;;;;;7.55;3.38;;;9.20;53.30;;;;;;4958907;28;20055;-73
2023/04/05 11:08:54;;;;;;;6.50;3.38;;;9.40;53.20;;;;;;4963743;28;20056;-73
2023/04/05 11:11:25;;;;;;;6.60;3.30;;;9.50;52.80;;;;;;4966262;28;20044;-73
2023/04/05 11:13:54;;;;;;;6.67;2.90;;;9.60;52.60;;;;;;4967976;28;20092;-73
2023/04/05 11:16:22;;;;;;;7.03;3.80;;;9.70;52.90;;;;;;4966164;28;20138;-73
2023/04/05 11:18:50;;;;;;;8.23;2.97;;;9.80;52.90;;;;;;4965249;28;20051;-73
2023/04/05 11:21:22;;;;;;;7.55;4.00;;;9.90;52.60;;;;;;4966023;28;20051;-72
2023/04/05 11:24:10;;;;;;;6.55;3.35;;;10.00;51.70;;;;;;4963720;28;20047;-72
2023/04/05 11:26:57;;;;;;;7.67;3.70;;;10.10;50.80;;;;;;4965193;28;20055;-72
2023/04/05 11:29:50;;;;;;;7.65;3.38;;;10.20;51.10;;;;;;4960855;28;20617;-73
2023/04/05 11:32:17;;;;;;;7.47;3.63;;;10.30;51.40;;;;;;4963343;28;20063;-72
2023/04/05 11:34:45;;;;;;;5.63;3.30;;;10.40;50.70;;;;;;4963881;28;20055;-73
2023/04/05 11:37:15;;;;;;;7.43;3.80;;;10.40;50.90;;;;;;4955006;28;20636;-73
2023/04/05 11:39:42;;;;;;;8.27;3.47;;;10.60;50.70;;;;;;4962431;28;20088;-73
2023/04/05 11:42:12;;;;;;;7.20;3.60;;;10.60;50.10;;;;;;4960151;28;20167;-73
2023/04/05 11:44:47;;;;;;;8.15;3.58;;;10.70;50.30;;;;;;4970345;28;20054;-73
2023/04/05 11:47:17;;;;;;;6.40;3.25;;;10.70;50.30;;;;;;4967626;28;20065;-73
2023/04/05 11:49:49;;;;;;;6.82;3.50;;;10.80;49.50;;;;;;4969859;28;20051;-72
2023/04/05 11:52:17;;;;;;;6.00;3.20;;;10.90;49.60;;;;;;4962424;28;20634;-73
2023/04/05 11:54:46;;;;;;;7.45;3.40;;;11.00;49.30;;;;;;4964629;28;20074;-73
2023/04/05 11:57:18;;;;;;;7.75;3.30;;;11.10;49.60;;;;;;4967696;28;20055;-73
2023/04/05 11:59:45;;;;;;;6.65;3.70;;;11.10;49.00;;;;;;4968822;28;20059;-73
2023/04/05 12:02:13;;;;;;;7.40;3.80;;;11.20;49.50;;;;;;4964858;28;20492;-72
2023/04/05 12:04:40;;;;;;;7.87;3.40;;;11.30;50.00;;;;;;4967732;28;20059;-72
2023/04/05 12:07:11;;;;;;;6.15;2.97;;;11.40;49.80;;;;;;4968950;28;20051;-72
2023/04/05 12:10:04;;;;;;;7.10;3.60;;;11.50;49.50;;;;;;4968194;28;20917;-72
2023/04/05 12:12:37;;;;;;;7.53;3.30;;;11.60;49.10;;;;;;4966117;28;20186;-73
2023/04/05 12:15:07;;;;;;;8.27;3.42;;;11.70;48.10;;;;;;4965074;28;20044;-73
2023/04/05 12:17:38;;;;;;;8.53;3.20;;;11.70;47.50;;;;;;4962295;28;20063;-73
2023/04/05 12:20:07;;;;;;;7.28;3.28;;;11.90;48.00;;;;;;4970513;28;20078;-73
2023/04/05 12:22:36;;;;;;;7.78;3.13;;;11.90;47.80;;;;;;4949306;28;20166;-73
2023/04/05 12:25:05;;;;;;;7.07;3.88;;;12.00;47.20;;;;;;4965105;28;20138;-73
2023/04/05 12:27:32;;;;;;;7.20;3.53;;;12.00;45.70;;;;;;4965040;28;20069;-73
2023/04/05 12:30:16;;;;;;;10.23;3.53;;;12.10;45.30;;;;;;4963835;28;20054;-73
2023/04/05 12:32:48;;;;;;;5.93;2.97;;;12.10;45.30;;;;;;4967594;28;20138;-73
2023/04/05 12:35:20;;;;;;;7.40;3.83;;;12.10;46.20;;;;;;4969174;28;20094;-73
2023/04/05 12:37:47;;;;;;;7.80;3.70;;;12.20;46.10;;;;;;4967983;28;20556;-73
2023/04/05 12:40:19;;;;;;;6.70;3.33;;;12.20;45.70;;;;;;4967749;28;21332;-73
2023/04/05 12:42:46;;;;;;;8.23;3.40;;;12.30;45.30;;;;;;4966607;28;20056;-73
2023/04/05 12:45:16;;;;;;;6.03;2.92;;;12.40;46.20;;;;;;4966556;28;20132;-73
2023/04/05 12:47:51;;;;;;;6.53;3.40;;;12.50;46.00;;;;;;4970482;28;20055;-74
2023/04/05 12:50:19;;;;;;;7.40;3.10;;;12.50;46.40;;;;;;4967975;28;20130;-73
2023/04/05 12:52:54;;;;;;;6.38;3.30;;;12.70;46.40;;;;;;4968507;28;20142;-73
2023/04/05 12:55:21;;;;;;;5.53;2.97;;;12.80;46.10;;;;;;4968914;28;20055;-73
2023/04/05 12:57:53;;;;;;;5.78;3.25;;;12.90;46.50;;;;;;4966526;28;20043;-73
2023/04/05 13:00:25;;;;;;;6.57;3.33;;;12.90;45.80;;;;;;4965589;28;20529;-73
2023/04/05 13:02:54;;;;;;;6.10;3.13;;;13.00;45.80;;;;;;4965399;28;20055;-72
2023/04/05 13:05:22;;;;;;;7.15;3.42;;;13.10;45.80;;;;;;4970809;28;20156;-72
2023/04/05 13:07:49;;;;;;;8.83;3.57;;;13.20;45.50;;;;;;4965932;28;20497;-72
2023/04/05 13:10:17;;;;;;;6.15;3.20;;;13.30;45.00;;;;;;4967399;28;20058;-72